createdAt,value
2023-12-05T00:01:50.978Z,14.05
2023-12-05T00:04:18.356Z,13.25
2023-12-05T00:09:12.625Z,13.45
2023-12-05T00:11:44.496Z,12.70
2023-12-05T00:14:13.898Z,12.57
2023-12-05T00:16:45.938Z,12.57
2023-12-05T00:19:12.905Z,12.15
2023-12-05T00:21:42.408Z,12.73
2023-12-05T00:24:09.455Z,12.98
2023-12-05T00:26:37.304Z,11.35
2023-12-05T00:29:04.280Z,11.10
2023-12-05T00:31:33.557Z,10.88
2023-12-05T00:34:00.758Z,11.65
2023-12-05T00:36:27.874Z,13.00
2023-12-05T00:38:55.015Z,13.02
2023-12-05T00:41:22.050Z,13.48
2023-12-05T00:43:49.039Z,13.60
2023-12-05T00:46:15.973Z,14.10
2023-12-05T00:48:42.910Z,13.90
2023-12-05T00:51:09.929Z,14.98
2023-12-05T00:53:37.476Z,12.68
2023-12-05T00:56:04.844Z,12.35
2023-12-05T01:00:58.899Z,12.50
2023-12-05T01:03:29.305Z,12.25
2023-12-05T01:05:56.381Z,12.63
2023-12-05T01:08:23.394Z,12.73
2023-12-05T01:10:50.418Z,12.80
2023-12-05T01:13:21.828Z,13.35
2023-12-05T01:15:53.811Z,12.77
2023-12-05T01:18:21.282Z,12.40
2023-12-05T01:20:48.308Z,12.02
2023-12-05T01:23:15.295Z,13.02
2023-12-05T01:25:42.284Z,12.48
2023-12-05T01:28:09.207Z,12.68
2023-12-05T01:30:36.230Z,11.60
2023-12-05T01:33:03.450Z,11.25
2023-12-05T01:35:30.402Z,11.70
2023-12-05T01:37:57.352Z,12.07
2023-12-05T01:40:29.580Z,11.95
2023-12-05T01:42:56.529Z,11.30
2023-12-05T01:45:25.877Z,12.10
2023-12-05T01:47:53.103Z,12.10
2023-12-05T01:50:26.692Z,11.55
2023-12-05T01:52:56.603Z,12.23
2023-12-05T01:55:27.535Z,10.70
2023-12-05T01:57:55.958Z,10.95
2023-12-05T02:00:26.985Z,10.95
2023-12-05T02:02:55.953Z,11.00
2023-12-05T02:05:23.434Z,11.13
2023-12-05T02:07:50.406Z,10.73
2023-12-05T02:10:19.576Z,11.40
2023-12-05T02:12:47.358Z,10.93
2023-12-05T02:15:17.615Z,11.20
2023-12-05T02:17:56.449Z,10.90
2023-12-05T02:20:51.697Z,10.65
2023-12-05T02:23:27.883Z,10.60
2023-12-05T02:26:21.932Z,9.80
2023-12-05T02:28:49.581Z,10.82
2023-12-05T02:31:16.987Z,10.40
2023-12-05T02:33:44.127Z,10.35
2023-12-05T02:36:21.632Z,9.93
2023-12-05T02:39:24.295Z,9.40
2023-12-05T02:41:55.199Z,10.27
2023-12-05T02:44:27.303Z,9.60
2023-12-05T02:46:54.962Z,9.15
2023-12-05T02:49:24.692Z,7.78
2023-12-05T02:51:51.621Z,7.88
2023-12-05T02:54:18.694Z,8.20
2023-12-05T02:56:45.660Z,7.03
2023-12-05T02:59:14.904Z,7.10
2023-12-05T03:01:42.076Z,6.78
2023-12-05T03:04:09.406Z,6.63
2023-12-05T03:09:06.260Z,6.05
2023-12-05T03:11:33.438Z,6.28
2023-12-05T03:14:02.172Z,6.20
2023-12-05T03:16:31.409Z,6.50
2023-12-05T03:19:01.070Z,6.47
2023-12-05T03:21:31.056Z,6.25
2023-12-05T03:24:00.401Z,6.13
2023-12-05T03:26:27.493Z,5.78
2023-12-05T03:28:54.367Z,6.07
2023-12-05T03:31:23.797Z,6.25
2023-12-05T03:33:50.763Z,6.10
2023-12-05T03:36:20.296Z,5.72
2023-12-05T03:38:47.204Z,6.28
2023-12-05T03:41:16.413Z,5.60
2023-12-05T03:43:43.730Z,5.85
2023-12-05T03:48:40.104Z,6.25
2023-12-05T03:51:09.808Z,5.95
2023-12-05T03:53:41.307Z,6.00
2023-12-05T03:56:08.772Z,6.30
2023-12-05T03:58:35.690Z,6.30
2023-12-05T04:01:02.778Z,7.15
2023-12-05T04:03:30.214Z,6.80
2023-12-05T04:05:59.413Z,7.80
2023-12-05T04:08:28.830Z,7.22
2023-12-05T04:10:58.615Z,7.18
2023-12-05T04:13:29.945Z,7.50
2023-12-05T04:15:57.836Z,7.82
2023-12-05T04:20:52.262Z,6.95
2023-12-05T04:23:19.219Z,6.35
2023-12-05T04:25:46.083Z,6.18
2023-12-05T04:28:13.064Z,6.13
2023-12-05T04:30:40.140Z,5.50
2023-12-05T04:33:07.565Z,6.28
2023-12-05T04:35:36.785Z,7.93
2023-12-05T04:38:06.254Z,11.20
2023-12-05T04:40:33.134Z,7.35
2023-12-05T04:43:04.481Z,7.90
2023-12-05T04:45:31.795Z,6.75
2023-12-05T04:50:26.159Z,7.40
2023-12-05T04:52:55.355Z,7.22
2023-12-05T04:55:22.259Z,8.70
2023-12-05T04:57:49.513Z,8.27
2023-12-05T05:00:19.373Z,8.40
2023-12-05T05:05:18.023Z,7.80
2023-12-05T05:10:14.057Z,7.22
2023-12-05T05:12:43.239Z,7.18
2023-12-05T05:15:12.333Z,7.00
2023-12-05T05:17:41.358Z,6.82
2023-12-05T05:20:08.758Z,7.13
2023-12-05T05:22:35.702Z,6.88
2023-12-05T05:25:02.763Z,6.20
2023-12-05T05:27:32.087Z,7.82
2023-12-05T05:29:59.061Z,7.30
2023-12-05T05:32:26.123Z,7.30
2023-12-05T05:34:58.250Z,7.03
2023-12-05T05:37:27.540Z,7.20
2023-12-05T05:39:57.068Z,7.53
2023-12-05T05:42:26.813Z,7.55
2023-12-05T05:44:56.096Z,7.78
2023-12-05T05:47:23.057Z,7.55
2023-12-05T05:49:50.030Z,7.72
2023-12-05T05:52:22.377Z,7.43
2023-12-05T05:54:52.246Z,8.18
2023-12-05T05:57:19.400Z,7.43
2023-12-05T05:59:46.367Z,6.38
2023-12-05T06:02:18.357Z,6.45
2023-12-05T06:04:45.605Z,6.22
2023-12-05T06:09:41.799Z,6.53
2023-12-05T06:12:10.038Z,6.97
2023-12-05T06:14:36.955Z,6.38
2023-12-05T06:17:04.005Z,7.03
2023-12-05T06:19:33.095Z,6.90
2023-12-05T06:22:07.036Z,7.72
2023-12-05T06:24:33.998Z,7.18
2023-12-05T06:27:04.130Z,6.50
2023-12-05T06:29:31.047Z,6.85
2023-12-05T06:31:57.962Z,7.10
2023-12-05T06:34:26.147Z,6.45
2023-12-05T06:36:53.166Z,6.68
2023-12-05T06:39:20.172Z,6.38
2023-12-05T06:41:47.479Z,6.60
2023-12-05T06:44:16.683Z,6.30
2023-12-05T06:46:46.089Z,6.20
2023-12-05T06:49:13.117Z,5.90
2023-12-05T06:51:43.962Z,5.65
2023-12-05T06:54:10.905Z,6.22
2023-12-05T06:56:38.082Z,6.00
2023-12-05T06:59:05.462Z,7.03
2023-12-05T07:04:02.996Z,6.13
2023-12-05T07:06:32.507Z,5.72
2023-12-05T07:08:59.929Z,6.20
2023-12-05T07:13:56.266Z,5.93
2023-12-05T07:16:23.387Z,7.03
2023-12-05T07:18:51.032Z,6.70
2023-12-05T07:21:18.079Z,6.75
2023-12-05T07:23:52.214Z,6.63
2023-12-05T07:26:24.841Z,6.78
2023-12-05T07:28:54.373Z,6.25
2023-12-05T07:31:21.925Z,7.03
2023-12-05T07:33:49.444Z,6.13
2023-12-05T07:36:16.505Z,9.10
2023-12-05T07:38:43.438Z,8.48
2023-12-05T07:41:24.077Z,9.35
2023-12-05T07:43:51.318Z,9.13
2023-12-05T07:46:20.532Z,10.82
2023-12-05T07:48:47.716Z,15.75
2023-12-05T07:51:20.172Z,14.75
2023-12-05T07:53:52.906Z,13.32
2023-12-05T07:56:20.137Z,12.93
2023-12-05T07:58:49.376Z,11.65
2023-12-05T08:01:18.467Z,11.45
2023-12-05T08:03:45.651Z,9.93
2023-12-05T08:06:13.207Z,11.85
2023-12-05T08:08:45.327Z,11.95
2023-12-05T08:11:13.008Z,16.45
2023-12-05T08:13:40.153Z,16.23
2023-12-05T08:16:09.836Z,14.85
2023-12-05T08:23:30.941Z,12.45
2023-12-05T08:26:00.273Z,12.38
2023-12-05T08:28:27.286Z,11.30
2023-12-05T08:30:54.298Z,9.77
2023-12-05T08:33:21.397Z,9.20
2023-12-05T08:35:48.456Z,9.52
2023-12-05T08:38:15.369Z,9.05
2023-12-05T08:40:42.628Z,9.55
2023-12-05T08:43:09.492Z,9.05
2023-12-05T08:45:36.500Z,7.53
2023-12-05T08:48:06.207Z,6.13
2023-12-05T08:50:33.196Z,6.68
2023-12-05T08:53:00.097Z,6.63
2023-12-05T08:55:27.332Z,7.15
2023-12-05T09:00:21.250Z,5.65
2023-12-05T09:02:48.236Z,6.28
2023-12-05T09:05:15.685Z,9.50
2023-12-05T09:07:42.837Z,8.52
2023-12-05T09:10:10.033Z,10.02
2023-12-05T09:12:37.032Z,11.60
2023-12-05T09:15:06.678Z,12.98
2023-12-05T09:17:36.214Z,11.98
2023-12-05T09:20:04.421Z,9.50
2023-12-05T09:22:31.393Z,5.55
2023-12-05T09:24:58.290Z,5.20
2023-12-05T09:27:25.547Z,4.13
2023-12-05T09:29:52.667Z,3.88
2023-12-05T09:32:19.718Z,3.17
2023-12-05T09:34:49.381Z,4.03
2023-12-05T09:37:16.388Z,2.20
2023-12-05T09:39:43.598Z,2.92
2023-12-05T09:42:21.045Z,2.97
2023-12-05T09:44:48.889Z,2.80
2023-12-05T09:47:21.756Z,2.95
2023-12-05T09:49:50.286Z,2.70
2023-12-05T09:52:23.469Z,2.67
2023-12-05T09:54:51.840Z,2.42
2023-12-05T09:57:22.656Z,2.47
2023-12-05T09:59:49.720Z,2.53
2023-12-05T10:02:20.135Z,2.30
2023-12-05T10:04:53.071Z,2.50
2023-12-05T10:07:20.402Z,2.13
2023-12-05T10:09:48.542Z,2.30
2023-12-05T10:12:16.645Z,2.30
2023-12-05T10:14:47.157Z,2.60
2023-12-05T10:17:16.725Z,2.25
2023-12-05T10:19:46.171Z,1.90
2023-12-05T10:22:13.757Z,1.92
2023-12-05T10:24:47.388Z,2.50
2023-12-05T10:27:14.418Z,2.80
2023-12-05T10:29:43.671Z,2.22
2023-12-05T10:32:13.144Z,2.10
2023-12-05T10:34:48.429Z,1.73
2023-12-05T10:37:22.660Z,1.75
2023-12-05T10:39:53.461Z,1.98
2023-12-05T10:42:21.556Z,1.83
2023-12-05T10:44:51.049Z,1.95
2023-12-05T10:47:20.229Z,1.48
2023-12-05T10:49:49.583Z,1.90
2023-12-05T10:52:16.934Z,1.60
2023-12-05T10:57:14.677Z,1.80
2023-12-05T10:59:43.888Z,1.60
2023-12-05T11:02:18.123Z,1.58
2023-12-05T11:04:48.328Z,1.48
2023-12-05T11:07:15.369Z,1.63
2023-12-05T11:09:43.682Z,1.60
2023-12-05T11:12:10.871Z,1.58
2023-12-05T11:14:46.668Z,1.30
2023-12-05T11:17:20.326Z,1.63
2023-12-05T11:20:06.179Z,1.50
2023-12-05T11:23:15.586Z,2.30
2023-12-05T11:26:10.833Z,1.30
2023-12-05T11:29:15.940Z,1.40
2023-12-05T11:31:43.436Z,1.70
2023-12-05T11:34:34.263Z,1.60
2023-12-05T11:37:11.348Z,1.70
2023-12-05T11:39:41.165Z,1.52
2023-12-05T11:42:13.419Z,1.75
2023-12-05T11:44:41.686Z,1.83
2023-12-05T11:47:27.122Z,1.40
2023-12-05T11:50:01.508Z,1.42
2023-12-05T11:52:40.683Z,1.70
2023-12-05T11:55:10.219Z,1.60
2023-12-05T11:57:39.972Z,2.00
2023-12-05T12:00:08.752Z,1.85
2023-12-05T12:02:40.123Z,1.50
2023-12-05T12:05:11.414Z,1.55
2023-12-05T12:07:57.549Z,1.80
2023-12-05T12:10:25.038Z,1.60
2023-12-05T12:15:23.451Z,1.50
2023-12-05T12:17:50.957Z,1.67
2023-12-05T12:22:51.167Z,1.60
2023-12-05T12:25:19.018Z,1.40
2023-12-05T12:27:48.401Z,2.00
2023-12-05T12:30:19.142Z,1.70
2023-12-05T12:33:14.678Z,1.45
2023-12-05T12:35:41.782Z,1.50
2023-12-05T12:38:11.043Z,1.90
2023-12-05T12:40:38.222Z,2.30
2023-12-05T12:43:05.457Z,2.58
2023-12-05T12:45:33.324Z,4.60
2023-12-05T12:48:04.870Z,1.92
2023-12-05T12:50:32.160Z,1.98
2023-12-05T12:53:01.890Z,1.90
2023-12-05T12:55:34.891Z,1.65
2023-12-05T12:58:05.679Z,2.40
2023-12-05T13:00:44.301Z,3.17
2023-12-05T13:03:12.727Z,2.55
2023-12-05T13:05:42.920Z,2.58
2023-12-05T13:08:10.009Z,1.73
2023-12-05T13:10:38.255Z,2.83
2023-12-05T13:13:05.915Z,1.92
2023-12-05T13:15:38.291Z,3.50
2023-12-05T13:18:08.852Z,2.10
2023-12-05T13:21:07.998Z,1.80
2023-12-05T13:23:35.592Z,2.05
2023-12-05T13:26:04.151Z,2.45
2023-12-05T13:28:33.288Z,2.42
2023-12-05T13:31:02.918Z,1.90
2023-12-05T13:33:32.988Z,1.60
2023-12-05T13:36:00.156Z,2.03
2023-12-05T13:38:27.236Z,2.20
2023-12-05T13:41:12.984Z,2.17
2023-12-05T13:46:07.120Z,2.10
2023-12-05T13:51:08.393Z,1.60
2023-12-05T13:53:36.299Z,1.33
2023-12-05T13:56:04.460Z,2.05
2023-12-05T13:58:31.339Z,2.10
2023-12-05T14:00:58.581Z,2.53
2023-12-05T14:03:25.839Z,2.13
2023-12-05T14:05:57.844Z,1.90
2023-12-05T14:08:24.877Z,1.40
2023-12-05T14:10:52.005Z,2.50
2023-12-05T14:13:18.883Z,2.30
2023-12-05T14:15:45.968Z,3.08
2023-12-05T14:18:18.056Z,2.80
2023-12-05T14:20:45.084Z,2.22
2023-12-05T14:23:12.089Z,2.90
2023-12-05T14:25:39.105Z,2.97
2023-12-05T14:28:08.487Z,2.70
2023-12-05T14:30:35.834Z,1.90
2023-12-05T14:35:32.298Z,2.70
2023-12-05T14:37:59.667Z,2.67
2023-12-05T14:42:56.514Z,2.75
2023-12-05T14:45:26.486Z,3.10
2023-12-05T14:47:53.839Z,3.05
2023-12-05T14:50:22.899Z,3.05
2023-12-05T14:52:50.973Z,2.80
2023-12-05T14:55:18.002Z,2.28
2023-12-05T14:57:45.228Z,3.42
2023-12-05T15:02:43.338Z,2.70
2023-12-05T15:05:10.666Z,2.70
2023-12-05T15:07:37.994Z,2.33
2023-12-05T15:10:08.575Z,3.00
2023-12-05T15:12:35.807Z,3.30
2023-12-05T15:15:05.746Z,4.80
2023-12-05T15:17:32.801Z,5.80
2023-12-05T15:20:18.943Z,5.68
2023-12-05T15:22:47.191Z,6.38
2023-12-05T15:30:11.696Z,6.35
2023-12-05T15:32:38.663Z,6.47
2023-12-05T15:35:06.095Z,7.75
2023-12-05T15:37:35.288Z,9.20
2023-12-05T15:40:02.248Z,4.20
2023-12-05T15:42:29.352Z,3.53
2023-12-05T15:44:59.282Z,3.60
2023-12-05T15:47:28.716Z,3.42
2023-12-05T15:49:56.173Z,4.25
2023-12-05T15:52:23.189Z,4.40
2023-12-05T15:54:52.277Z,3.83
2023-12-05T15:57:19.652Z,3.50
2023-12-05T15:59:48.860Z,4.68
2023-12-05T16:02:16.604Z,4.15
2023-12-05T16:04:43.590Z,4.35
2023-12-05T16:07:11.773Z,3.72
2023-12-05T16:09:38.726Z,3.28
2023-12-05T16:12:05.986Z,3.30
2023-12-05T16:14:33.500Z,3.20
2023-12-05T16:17:01.023Z,3.47
2023-12-05T16:19:28.222Z,4.32
2023-12-05T16:24:23.082Z,6.75
2023-12-05T16:26:50.204Z,7.13
2023-12-05T16:29:17.120Z,6.35
2023-12-05T16:31:44.162Z,5.18
2023-12-05T16:34:11.078Z,4.00
2023-12-05T16:36:39.239Z,4.20
2023-12-05T16:39:08.895Z,4.90
2023-12-05T16:41:38.067Z,3.53
2023-12-05T16:44:05.183Z,3.55
2023-12-05T16:46:32.924Z,2.78
2023-12-05T16:49:00.034Z,3.45
2023-12-05T16:51:27.314Z,3.05
2023-12-05T16:53:56.806Z,2.85
2023-12-05T16:56:26.118Z,3.40
2023-12-05T16:58:53.100Z,3.58
2023-12-05T17:01:20.155Z,6.68
2023-12-05T17:03:47.280Z,3.72
2023-12-05T17:06:17.679Z,3.60
2023-12-05T17:08:44.545Z,4.00
2023-12-05T17:11:11.472Z,4.00
2023-12-05T17:13:38.775Z,3.40
2023-12-05T17:16:07.138Z,2.50
2023-12-05T17:18:34.191Z,2.95
2023-12-05T17:21:01.291Z,2.88
2023-12-05T17:23:33.108Z,3.03
2023-12-05T17:26:00.168Z,3.92
2023-12-05T17:28:28.197Z,3.30
2023-12-05T17:30:55.308Z,2.97
2023-12-05T17:33:26.926Z,3.03
2023-12-05T17:35:56.098Z,2.80
2023-12-05T17:38:25.240Z,2.90
2023-12-05T17:40:52.263Z,2.97
2023-12-05T17:43:19.181Z,3.08
2023-12-05T17:45:46.131Z,3.90
2023-12-05T17:48:13.355Z,4.63
2023-12-05T17:50:40.327Z,4.85
2023-12-05T17:53:07.462Z,5.10
2023-12-05T17:55:34.618Z,6.15
2023-12-05T17:58:01.726Z,6.57
2023-12-05T18:00:29.028Z,7.03
2023-12-05T18:02:56.199Z,7.10
2023-12-05T18:05:25.722Z,6.72
2023-12-05T18:07:58.572Z,5.57
2023-12-05T18:10:28.365Z,4.90
2023-12-05T18:12:55.487Z,4.65
2023-12-05T18:15:24.766Z,3.28
2023-12-05T18:17:53.935Z,3.33
2023-12-05T18:20:21.123Z,2.72
2023-12-05T18:22:48.171Z,2.80
2023-12-05T18:25:16.077Z,2.30
2023-12-05T18:27:43.749Z,2.47
2023-12-05T18:30:10.954Z,2.72
2023-12-05T18:32:40.665Z,2.30
2023-12-05T18:35:08.037Z,2.17
2023-12-05T18:37:37.330Z,2.00
2023-12-05T18:40:09.272Z,2.10
2023-12-05T18:42:36.323Z,2.17
2023-12-05T18:45:03.533Z,2.13
2023-12-05T18:47:30.533Z,2.10
2023-12-05T18:50:02.568Z,2.80
2023-12-05T18:52:29.752Z,2.45
2023-12-05T18:54:57.502Z,2.30
2023-12-05T18:57:26.896Z,2.08
2023-12-05T18:59:54.071Z,1.95
2023-12-05T19:02:21.012Z,2.50
2023-12-05T19:04:48.892Z,2.00
2023-12-05T19:07:18.195Z,2.42
2023-12-05T19:09:47.622Z,2.58
2023-12-05T19:12:15.249Z,3.10
2023-12-05T19:14:42.319Z,1.90
2023-12-05T19:17:09.365Z,2.10
2023-12-05T19:19:40.949Z,2.60
2023-12-05T19:22:08.004Z,2.67
2023-12-05T19:24:35.296Z,4.38
2023-12-05T19:27:02.265Z,2.28
2023-12-05T19:29:29.490Z,2.78
2023-12-05T19:31:56.488Z,3.15
2023-12-05T19:34:35.198Z,3.15
2023-12-05T19:37:10.176Z,2.20
2023-12-05T19:39:40.958Z,2.63
2023-12-05T19:42:16.737Z,2.70
2023-12-05T19:44:45.985Z,1.90
2023-12-05T19:47:19.238Z,1.98
2023-12-05T19:49:46.571Z,2.20
2023-12-05T19:52:13.697Z,1.60
2023-12-05T19:54:40.805Z,2.30
2023-12-05T19:57:07.967Z,2.25
2023-12-05T19:59:35.977Z,2.22
2023-12-05T20:02:03.315Z,3.28
2023-12-05T20:07:02.547Z,10.88
2023-12-05T20:09:29.630Z,3.75
2023-12-05T20:11:59.044Z,3.10
2023-12-05T20:14:26.059Z,3.45
2023-12-05T20:16:53.239Z,2.10
2023-12-05T20:19:21.037Z,1.85
2023-12-05T20:21:48.654Z,1.70
2023-12-05T20:24:15.763Z,1.70
2023-12-05T20:26:45.077Z,1.90
2023-12-05T20:29:14.709Z,2.30
2023-12-05T20:31:42.750Z,3.30
2023-12-05T20:34:09.835Z,2.10
2023-12-05T20:36:36.902Z,2.63
2023-12-05T20:39:06.056Z,2.05
2023-12-05T20:41:33.286Z,1.80
2023-12-05T20:44:00.318Z,1.80
2023-12-05T20:46:27.419Z,1.80
2023-12-05T20:48:54.561Z,1.75
2023-12-05T20:51:24.045Z,1.80
2023-12-05T20:53:54.545Z,1.80
2023-12-05T20:56:24.409Z,1.85
2023-12-05T20:58:51.329Z,3.03
2023-12-05T21:01:18.457Z,2.40
2023-12-05T21:03:47.735Z,1.85
2023-12-05T21:06:15.466Z,2.00
2023-12-05T21:09:10.181Z,1.90
2023-12-05T21:11:33.495Z,1.40
2023-12-05T21:14:02.851Z,1.60
2023-12-05T21:16:34.515Z,1.48
2023-12-05T21:19:01.612Z,1.73
2023-12-05T21:21:30.786Z,1.85
2023-12-05T21:23:59.993Z,2.50
2023-12-05T21:26:29.695Z,2.78
2023-12-05T21:28:56.624Z,3.03
2023-12-05T21:31:23.547Z,3.88
2023-12-05T21:33:50.530Z,2.97
2023-12-05T21:36:24.981Z,2.45
2023-12-05T21:38:55.853Z,1.98
2023-12-05T21:41:25.590Z,3.35
2023-12-05T21:43:52.506Z,7.15
2023-12-05T21:46:30.224Z,2.55
2023-12-05T21:48:57.853Z,2.10
2023-12-05T21:51:27.904Z,1.80
2023-12-05T21:53:59.529Z,1.70
2023-12-05T21:56:27.975Z,1.52
2023-12-05T21:58:55.010Z,1.60
2023-12-05T22:01:21.991Z,1.88
2023-12-05T22:03:49.536Z,1.75
2023-12-05T22:06:16.634Z,1.60
2023-12-05T22:08:45.869Z,1.38
2023-12-05T22:11:13.270Z,1.42
2023-12-05T22:13:44.315Z,1.55
2023-12-05T22:16:11.525Z,1.50
2023-12-05T22:18:38.653Z,1.55
2023-12-05T22:21:07.996Z,1.67
2023-12-05T22:23:41.130Z,1.77
2023-12-05T22:26:10.821Z,1.67
2023-12-05T22:28:40.093Z,1.48
2023-12-05T22:31:07.180Z,1.30
2023-12-05T22:33:34.314Z,1.73
2023-12-05T22:36:01.994Z,1.42
2023-12-05T22:38:28.904Z,1.60
2023-12-05T22:40:58.215Z,1.58
2023-12-05T22:43:25.128Z,1.52
2023-12-05T22:45:52.343Z,1.45
2023-12-05T22:48:19.744Z,1.60
2023-12-05T22:51:41.770Z,1.40
2023-12-05T22:54:08.843Z,1.73
2023-12-05T22:56:41.918Z,2.03
2023-12-05T22:59:11.071Z,2.25
2023-12-05T23:01:37.996Z,1.90
2023-12-05T23:04:05.179Z,2.00
2023-12-05T23:06:35.544Z,1.70
2023-12-05T23:11:31.564Z,1.80
2023-12-05T23:13:58.411Z,1.98
2023-12-05T23:16:30.227Z,1.48
2023-12-05T23:18:59.597Z,1.60
2023-12-05T23:21:26.795Z,1.40
2023-12-05T23:23:53.809Z,1.50
2023-12-05T23:26:20.804Z,1.60
2023-12-05T23:28:50.002Z,1.50
2023-12-05T23:31:16.929Z,1.80
2023-12-05T23:33:44.036Z,1.38
2023-12-05T23:36:13.096Z,1.73
2023-12-05T23:38:40.256Z,1.70
2023-12-05T23:41:09.846Z,1.50
2023-12-05T23:43:36.799Z,1.05
2023-12-05T23:46:06.172Z,1.60
2023-12-05T23:48:33.365Z,1.52
2023-12-05T23:53:29.770Z,1.40
2023-12-05T23:56:01.456Z,1.10
2023-12-05T23:58:30.468Z,1.35
